createdAt,value
2022-12-16T00:00:14.796Z,100.00
2022-12-16T00:02:41.915Z,100.00
2022-12-16T00:05:08.901Z,100.00
2022-12-16T00:07:35.718Z,100.00
2022-12-16T00:10:02.757Z,100.00
2022-12-16T00:12:29.573Z,100.00
2022-12-16T00:14:56.468Z,100.00
2022-12-16T00:17:23.500Z,100.00
2022-12-16T00:19:50.420Z,100.00
2022-12-16T00:22:17.742Z,100.00
2022-12-16T00:24:44.590Z,100.00
2022-12-16T00:27:11.491Z,100.00
2022-12-16T00:29:38.377Z,100.00
2022-12-16T00:32:06.296Z,100.00
2022-12-16T00:34:33.496Z,100.00
2022-12-16T00:37:00.386Z,100.00
2022-12-16T00:39:27.217Z,100.00
2022-12-16T00:41:54.031Z,100.00
2022-12-16T00:44:21.812Z,100.00
2022-12-16T00:46:48.678Z,100.00
2022-12-16T00:49:15.539Z,100.00
2022-12-16T00:51:42.415Z,100.00
2022-12-16T00:54:09.237Z,100.00
2022-12-16T00:56:36.928Z,100.00
2022-12-16T00:59:03.738Z,100.00
2022-12-16T01:01:30.669Z,100.00
2022-12-16T01:03:58.021Z,100.00
2022-12-16T01:06:25.011Z,100.00
2022-12-16T01:08:51.882Z,100.00
2022-12-16T01:11:19.867Z,100.00
2022-12-16T01:13:50.102Z,100.00
2022-12-16T01:16:19.637Z,100.00
2022-12-16T01:18:46.594Z,100.00
2022-12-16T01:21:14.838Z,100.00
2022-12-16T01:23:41.673Z,100.00
2022-12-16T01:26:14.891Z,100.00
2022-12-16T01:28:41.730Z,100.00
2022-12-16T01:31:08.529Z,100.00
2022-12-16T01:33:35.834Z,100.00
2022-12-16T01:36:04.912Z,100.00
2022-12-16T01:38:31.780Z,100.00
2022-12-16T01:40:58.652Z,100.00
2022-12-16T01:43:33.745Z,100.00
2022-12-16T01:46:21.063Z,100.00
2022-12-16T01:48:50.829Z,100.00
2022-12-16T01:51:17.605Z,100.00
2022-12-16T01:53:45.818Z,100.00
2022-12-16T01:56:15.304Z,100.00
2022-12-16T01:58:42.758Z,100.00
2022-12-16T02:01:10.025Z,100.00
2022-12-16T02:03:37.704Z,100.00
2022-12-16T02:06:06.108Z,100.00
2022-12-16T02:08:32.973Z,100.00
2022-12-16T02:11:02.518Z,100.00
2022-12-16T02:13:44.432Z,100.00
2022-12-16T02:16:16.689Z,100.00
2022-12-16T02:18:47.058Z,100.00
2022-12-16T02:21:32.604Z,100.00
2022-12-16T02:24:08.306Z,100.00
2022-12-16T02:26:38.362Z,100.00
2022-12-16T02:29:05.145Z,100.00
2022-12-16T02:31:44.150Z,100.00
2022-12-16T02:34:20.851Z,100.00
2022-12-16T02:37:10.421Z,100.00
2022-12-16T02:39:38.426Z,100.00
2022-12-16T02:42:17.308Z,100.00
2022-12-16T02:48:31.844Z,100.00
2022-12-16T02:50:58.693Z,100.00
2022-12-16T02:53:25.854Z,100.00
2022-12-16T02:55:56.377Z,100.00
2022-12-16T02:58:23.172Z,100.00
2022-12-16T03:01:10.564Z,100.00
2022-12-16T03:03:49.582Z,100.00
2022-12-16T03:06:19.004Z,100.00
2022-12-16T03:08:49.025Z,100.00
2022-12-16T03:11:15.943Z,100.00
2022-12-16T03:13:44.948Z,100.00
2022-12-16T03:16:14.181Z,100.00
2022-12-16T03:18:42.952Z,100.00
2022-12-16T03:21:10.031Z,100.00
2022-12-16T03:23:41.532Z,100.00
2022-12-16T03:26:12.531Z,100.00
2022-12-16T03:28:46.278Z,100.00
2022-12-16T03:31:17.971Z,100.00
2022-12-16T03:33:49.056Z,100.00
2022-12-16T03:36:20.108Z,100.00
2022-12-16T03:38:47.016Z,100.00
2022-12-16T03:41:16.179Z,100.00
2022-12-16T03:43:43.499Z,100.00
2022-12-16T03:46:11.869Z,100.00
2022-12-16T03:48:45.254Z,100.00
2022-12-16T03:51:12.052Z,100.00
2022-12-16T03:53:39.108Z,100.00
2022-12-16T03:56:06.040Z,100.00
2022-12-16T03:58:35.238Z,100.00
2022-12-16T04:01:02.151Z,100.00
2022-12-16T04:03:29.051Z,100.00
2022-12-16T04:05:55.967Z,100.00
2022-12-16T04:08:22.913Z,100.00
2022-12-16T04:11:11.390Z,100.00
2022-12-16T04:13:56.983Z,100.00
2022-12-16T04:16:44.705Z,100.00
2022-12-16T04:19:33.496Z,100.00
2022-12-16T04:22:19.024Z,100.00
2022-12-16T04:24:45.845Z,100.00
2022-12-16T04:27:24.562Z,100.00
2022-12-16T04:30:09.918Z,100.00
2022-12-16T04:32:55.536Z,100.00
2022-12-16T04:35:41.181Z,100.00
2022-12-16T04:38:26.529Z,100.00
2022-12-16T04:41:12.309Z,100.00
2022-12-16T04:43:58.293Z,100.00
2022-12-16T04:46:44.179Z,100.00
2022-12-16T04:49:29.896Z,100.00
2022-12-16T04:52:15.355Z,100.00
2022-12-16T04:55:01.033Z,100.00
2022-12-16T04:57:46.634Z,100.00
2022-12-16T05:00:32.065Z,100.00
2022-12-16T05:03:17.634Z,100.00
2022-12-16T05:06:03.310Z,100.00
2022-12-16T05:08:48.734Z,100.00
2022-12-16T05:11:34.557Z,100.00
2022-12-16T05:14:20.125Z,100.00
2022-12-16T05:17:05.800Z,100.00
2022-12-16T05:19:51.381Z,100.00
2022-12-16T05:22:37.230Z,100.00
2022-12-16T05:25:23.002Z,100.00
2022-12-16T05:28:09.151Z,100.00
2022-12-16T05:30:54.774Z,100.00
2022-12-16T05:33:41.569Z,100.00
2022-12-16T05:36:27.225Z,100.00
2022-12-16T05:39:12.903Z,100.00
2022-12-16T05:41:58.357Z,100.00
2022-12-16T05:44:44.060Z,100.00
2022-12-16T05:47:30.053Z,100.00
2022-12-16T05:50:15.683Z,100.00
2022-12-16T05:53:07.201Z,100.00
2022-12-16T05:55:52.515Z,100.00
2022-12-16T05:58:38.089Z,100.00
2022-12-16T06:01:23.818Z,100.00
2022-12-16T06:04:14.126Z,100.00
2022-12-16T06:07:03.093Z,100.00
2022-12-16T06:09:53.295Z,100.00
2022-12-16T06:12:41.969Z,100.00
2022-12-16T06:15:27.649Z,100.00
2022-12-16T06:18:13.238Z,100.00
2022-12-16T06:20:58.668Z,99.95
2022-12-16T06:23:44.431Z,100.00
2022-12-16T06:26:30.075Z,100.00
2022-12-16T06:29:15.699Z,99.00
2022-12-16T06:32:01.424Z,100.00
2022-12-16T06:34:46.979Z,100.00
2022-12-16T06:37:32.697Z,100.00
2022-12-16T06:40:18.297Z,100.00
2022-12-16T06:43:04.100Z,100.00
2022-12-16T06:45:49.809Z,100.00
2022-12-16T06:48:35.533Z,100.00
2022-12-16T06:51:21.115Z,100.00
2022-12-16T06:54:06.756Z,100.00
2022-12-16T06:56:52.127Z,100.00
2022-12-16T06:59:37.757Z,100.00
2022-12-16T07:02:23.358Z,100.00
2022-12-16T07:05:28.720Z,100.00
2022-12-16T07:08:14.396Z,100.00
2022-12-16T07:11:13.904Z,100.00
2022-12-16T07:14:02.180Z,100.00
2022-12-16T07:16:47.827Z,100.00
2022-12-16T07:19:33.249Z,100.00
2022-12-16T07:22:19.192Z,100.00
2022-12-16T07:25:04.894Z,100.00
2022-12-16T07:27:51.701Z,100.00
2022-12-16T07:30:37.399Z,99.86
2022-12-16T07:33:22.923Z,99.02
2022-12-16T07:36:08.652Z,98.93
2022-12-16T07:38:54.249Z,99.09
2022-12-16T07:41:40.037Z,99.46
2022-12-16T07:44:25.725Z,99.19
2022-12-16T07:47:11.307Z,98.71
2022-12-16T07:49:57.169Z,98.92
2022-12-16T07:52:42.818Z,98.57
2022-12-16T07:55:28.752Z,98.99
2022-12-16T07:58:14.453Z,98.80
2022-12-16T08:01:01.768Z,98.80
2022-12-16T08:03:50.806Z,99.39
2022-12-16T08:06:40.297Z,99.64
2022-12-16T08:09:26.324Z,98.45
2022-12-16T08:12:12.120Z,98.28
2022-12-16T08:14:57.985Z,98.22
2022-12-16T08:17:43.633Z,97.73
2022-12-16T08:20:29.337Z,96.90
2022-12-16T08:23:15.195Z,96.43
2022-12-16T08:26:00.626Z,95.48
2022-12-16T08:28:46.573Z,95.18
2022-12-16T08:31:32.133Z,95.58
2022-12-16T08:34:17.877Z,94.53
2022-12-16T08:37:03.592Z,94.08
2022-12-16T08:40:04.839Z,94.99
2022-12-16T08:42:54.370Z,95.34
2022-12-16T08:45:53.027Z,94.02
2022-12-16T08:48:38.798Z,93.77
2022-12-16T08:51:24.914Z,93.30
2022-12-16T08:54:10.457Z,93.92
2022-12-16T08:56:56.188Z,93.39
2022-12-16T08:59:41.792Z,92.93
2022-12-16T09:02:29.121Z,92.96
2022-12-16T09:05:15.093Z,93.69
2022-12-16T09:08:00.752Z,93.53
2022-12-16T09:10:46.444Z,93.35
2022-12-16T09:13:33.675Z,93.42
2022-12-16T09:16:20.099Z,92.52
2022-12-16T09:19:05.752Z,93.27
2022-12-16T09:21:51.444Z,93.33
2022-12-16T09:24:36.976Z,93.26
2022-12-16T09:27:22.607Z,92.51
2022-12-16T09:30:08.300Z,92.96
2022-12-16T09:32:54.287Z,92.30
2022-12-16T09:35:39.892Z,92.74
2022-12-16T09:38:25.186Z,92.10
2022-12-16T09:41:10.862Z,91.99
2022-12-16T09:44:17.202Z,93.13
2022-12-16T09:47:15.085Z,92.83
2022-12-16T09:50:00.684Z,92.92
2022-12-16T09:52:46.652Z,91.36
2022-12-16T09:55:41.472Z,91.23
2022-12-16T09:58:27.845Z,91.11
2022-12-16T10:01:13.761Z,92.16
2022-12-16T10:03:59.773Z,92.14
2022-12-16T10:06:48.327Z,92.04
2022-12-16T10:09:54.621Z,92.82
2022-12-16T10:12:48.716Z,91.91
2022-12-16T10:16:01.537Z,91.21
2022-12-16T10:19:06.103Z,90.87
2022-12-16T10:21:55.301Z,90.81
2022-12-16T10:24:43.949Z,91.36
2022-12-16T10:27:33.727Z,90.00
2022-12-16T10:30:20.015Z,90.87
2022-12-16T10:33:06.629Z,91.50
2022-12-16T10:36:00.289Z,90.95
2022-12-16T10:38:54.685Z,89.97
2022-12-16T10:41:43.610Z,90.85
2022-12-16T10:44:49.411Z,90.45
2022-12-16T10:47:34.813Z,90.54
2022-12-16T10:50:20.480Z,90.07
2022-12-16T10:53:17.908Z,90.49
2022-12-16T10:56:22.118Z,89.37
2022-12-16T10:59:07.773Z,88.08
2022-12-16T11:01:54.097Z,88.94
2022-12-16T11:04:48.904Z,90.41
2022-12-16T11:07:45.776Z,89.39
2022-12-16T11:10:43.697Z,89.71
2022-12-16T11:13:36.503Z,89.56
2022-12-16T11:16:42.787Z,89.20
2022-12-16T11:19:41.413Z,91.15
2022-12-16T11:22:33.141Z,90.60
2022-12-16T11:25:24.989Z,89.20
2022-12-16T11:28:22.275Z,90.22
2022-12-16T11:31:11.948Z,90.68
2022-12-16T11:33:57.989Z,90.47
2022-12-16T11:36:44.053Z,90.89
2022-12-16T11:39:35.826Z,90.47
2022-12-16T11:42:22.139Z,90.30
2022-12-16T11:45:09.640Z,90.53
2022-12-16T11:47:55.022Z,91.40
2022-12-16T11:50:42.218Z,91.61
2022-12-16T11:53:39.673Z,90.11
2022-12-16T11:56:25.692Z,90.10
2022-12-16T11:59:16.948Z,89.82
2022-12-16T12:02:07.436Z,90.33
2022-12-16T12:04:54.334Z,90.22
2022-12-16T12:07:46.206Z,90.14
2022-12-16T12:11:07.442Z,91.95
2022-12-16T12:13:59.428Z,91.03
2022-12-16T12:16:51.246Z,90.34
2022-12-16T12:19:43.851Z,90.26
2022-12-16T12:22:36.863Z,89.75
2022-12-16T12:25:35.186Z,90.83
2022-12-16T12:28:23.885Z,91.14
2022-12-16T12:31:23.038Z,91.55
2022-12-16T12:34:43.947Z,90.11
2022-12-16T12:37:39.650Z,89.29
2022-12-16T12:40:31.467Z,88.75
2022-12-16T12:43:17.599Z,88.50
2022-12-16T12:46:15.298Z,88.39
2022-12-16T12:49:03.687Z,89.03
2022-12-16T12:51:52.398Z,88.73
2022-12-16T12:54:45.475Z,88.55
2022-12-16T12:57:34.092Z,89.25
2022-12-16T13:00:22.369Z,89.61
2022-12-16T13:03:24.338Z,89.45
2022-12-16T13:06:10.069Z,88.84
2022-12-16T13:09:07.897Z,88.43
2022-12-16T13:11:54.016Z,87.87
2022-12-16T13:14:49.893Z,87.45
2022-12-16T13:17:38.609Z,87.54
2022-12-16T13:20:44.503Z,87.17
2022-12-16T13:23:50.193Z,87.69
2022-12-16T13:26:37.002Z,87.81
2022-12-16T13:29:36.890Z,87.32
2022-12-16T13:32:25.776Z,87.10
2022-12-16T13:35:22.603Z,87.76
2022-12-16T13:38:11.313Z,87.57
2022-12-16T13:41:12.251Z,87.57
2022-12-16T13:44:03.961Z,87.08
2022-12-16T13:47:06.423Z,86.67
2022-12-16T13:49:58.931Z,86.85
2022-12-16T13:52:49.035Z,86.78
2022-12-16T13:55:39.591Z,87.46
2022-12-16T13:58:32.137Z,87.65
2022-12-16T14:01:22.775Z,88.20
2022-12-16T14:04:11.027Z,88.98
2022-12-16T14:06:57.148Z,89.09
2022-12-16T14:09:56.371Z,88.77
2022-12-16T14:12:57.195Z,90.41
2022-12-16T14:15:46.201Z,90.68
2022-12-16T14:18:45.714Z,92.00
2022-12-16T14:21:35.017Z,90.72
2022-12-16T14:24:29.493Z,91.86
2022-12-16T14:27:15.110Z,86.89
2022-12-16T14:30:02.294Z,87.50
2022-12-16T14:32:52.407Z,89.34
2022-12-16T14:35:39.670Z,91.16
2022-12-16T14:38:40.449Z,91.70
2022-12-16T14:41:33.758Z,94.20
2022-12-16T14:44:19.880Z,94.64
2022-12-16T14:47:11.801Z,96.22
2022-12-16T14:50:07.126Z,95.96
2022-12-16T14:52:52.735Z,96.62
2022-12-16T14:55:39.488Z,97.73
2022-12-16T14:58:24.790Z,97.55
2022-12-16T15:01:15.542Z,98.47
2022-12-16T15:04:09.158Z,99.00
2022-12-16T15:07:02.361Z,99.33
2022-12-16T15:09:50.916Z,100.00
2022-12-16T15:12:40.124Z,100.00
2022-12-16T15:15:28.196Z,100.00
2022-12-16T15:18:14.799Z,100.00
2022-12-16T15:21:06.275Z,100.00
2022-12-16T15:23:52.986Z,100.00
2022-12-16T15:26:39.728Z,100.00
2022-12-16T15:29:45.359Z,100.00
2022-12-16T15:32:43.376Z,100.00
2022-12-16T15:35:29.624Z,100.00
2022-12-16T15:38:15.182Z,100.00
2022-12-16T15:41:00.929Z,100.00
2022-12-16T15:43:56.169Z,100.00
2022-12-16T15:46:45.476Z,100.00
2022-12-16T15:49:37.049Z,100.00
2022-12-16T15:52:39.838Z,100.00
2022-12-16T15:55:42.743Z,100.00
2022-12-16T15:58:33.103Z,100.00
2022-12-16T16:01:19.171Z,100.00
2022-12-16T16:04:12.229Z,100.00
2022-12-16T16:06:59.608Z,100.00
2022-12-16T16:09:46.708Z,100.00
2022-12-16T16:12:33.906Z,100.00
2022-12-16T16:15:19.699Z,100.00
2022-12-16T16:18:06.808Z,100.00
2022-12-16T16:20:52.453Z,100.00
2022-12-16T16:23:38.139Z,100.00
2022-12-16T16:26:23.849Z,100.00
2022-12-16T16:29:09.422Z,100.00
2022-12-16T16:31:59.413Z,100.00
2022-12-16T16:34:48.943Z,100.00
2022-12-16T16:37:35.655Z,100.00
2022-12-16T16:40:32.321Z,100.00
2022-12-16T16:43:18.117Z,100.00
2022-12-16T16:46:03.494Z,100.00
2022-12-16T16:48:49.180Z,100.00
2022-12-16T16:51:34.900Z,100.00
2022-12-16T16:54:20.400Z,100.00
2022-12-16T16:57:05.928Z,100.00
2022-12-16T16:59:51.517Z,100.00
2022-12-16T17:02:41.117Z,100.00
2022-12-16T17:05:29.787Z,100.00
2022-12-16T17:08:15.455Z,100.00
2022-12-16T17:11:01.261Z,100.00
2022-12-16T17:13:46.848Z,100.00
2022-12-16T17:16:32.531Z,100.00
2022-12-16T17:19:18.304Z,100.00
2022-12-16T17:22:04.158Z,100.00
2022-12-16T17:24:53.977Z,100.00
2022-12-16T17:27:41.730Z,100.00
2022-12-16T17:30:41.912Z,100.00
2022-12-16T17:33:31.019Z,100.00
2022-12-16T17:36:16.852Z,100.00
2022-12-16T17:39:02.961Z,100.00
2022-12-16T17:41:49.883Z,100.00
2022-12-16T17:44:35.462Z,100.00
2022-12-16T17:47:21.073Z,100.00
2022-12-16T17:50:06.747Z,100.00
2022-12-16T17:52:52.273Z,100.00
2022-12-16T17:55:37.971Z,100.00
2022-12-16T17:58:23.361Z,100.00
2022-12-16T18:01:09.164Z,100.00
2022-12-16T18:03:54.824Z,100.00
2022-12-16T18:06:47.861Z,100.00
2022-12-16T18:09:33.436Z,100.00
2022-12-16T18:12:19.193Z,100.00
2022-12-16T18:15:04.853Z,100.00
2022-12-16T18:17:50.740Z,100.00
2022-12-16T18:20:36.481Z,100.00
2022-12-16T18:23:22.105Z,100.00
2022-12-16T18:26:15.423Z,100.00
2022-12-16T18:29:01.053Z,100.00
2022-12-16T18:31:46.731Z,100.00
2022-12-16T18:34:32.123Z,100.00
2022-12-16T18:37:17.913Z,100.00
2022-12-16T18:40:03.518Z,100.00
2022-12-16T18:42:49.229Z,100.00
2022-12-16T18:45:34.864Z,100.00
2022-12-16T18:48:20.447Z,100.00
2022-12-16T18:51:16.326Z,100.00
2022-12-16T18:54:01.986Z,100.00
2022-12-16T18:56:47.765Z,100.00
2022-12-16T18:59:33.348Z,100.00
2022-12-16T19:02:19.367Z,100.00
2022-12-16T19:05:04.672Z,100.00
2022-12-16T19:07:50.436Z,100.00
2022-12-16T19:10:36.036Z,100.00
2022-12-16T19:13:21.507Z,100.00
2022-12-16T19:16:15.895Z,100.00
2022-12-16T19:19:01.632Z,100.00
2022-12-16T19:21:52.121Z,100.00
2022-12-16T19:24:42.451Z,100.00
2022-12-16T19:27:28.022Z,100.00
2022-12-16T19:30:13.475Z,100.00
2022-12-16T19:32:59.176Z,100.00
2022-12-16T19:35:44.888Z,100.00
2022-12-16T19:38:33.638Z,100.00
2022-12-16T19:41:19.274Z,100.00
2022-12-16T19:44:06.571Z,100.00
2022-12-16T19:46:53.354Z,100.00
2022-12-16T19:49:52.427Z,100.00
2022-12-16T19:52:40.059Z,100.00
2022-12-16T19:55:25.842Z,100.00
2022-12-16T19:58:11.479Z,100.00
2022-12-16T20:00:57.180Z,100.00
2022-12-16T20:03:44.176Z,100.00
2022-12-16T20:06:30.360Z,100.00
2022-12-16T20:09:16.165Z,100.00
2022-12-16T20:12:01.774Z,100.00
2022-12-16T20:14:47.283Z,100.00
2022-12-16T20:17:33.021Z,100.00
2022-12-16T20:20:18.606Z,100.00
2022-12-16T20:23:04.368Z,100.00
2022-12-16T20:25:50.009Z,100.00
2022-12-16T20:28:35.368Z,100.00
2022-12-16T20:31:21.555Z,100.00
2022-12-16T20:34:13.900Z,100.00
2022-12-16T20:37:00.015Z,100.00
2022-12-16T20:39:51.184Z,100.00
2022-12-16T20:42:42.632Z,100.00
2022-12-16T20:45:28.321Z,100.00
2022-12-16T20:48:14.039Z,100.00
2022-12-16T20:50:59.389Z,100.00
2022-12-16T20:53:45.207Z,100.00
2022-12-16T20:56:30.881Z,100.00
2022-12-16T20:59:16.769Z,100.00
2022-12-16T21:02:22.697Z,100.00
2022-12-16T21:05:11.177Z,100.00
2022-12-16T21:07:56.932Z,100.00
2022-12-16T21:10:42.973Z,100.00
2022-12-16T21:13:30.311Z,100.00
2022-12-16T21:16:16.462Z,100.00
2022-12-16T21:19:02.041Z,100.00
2022-12-16T21:21:47.611Z,100.00
2022-12-16T21:24:33.212Z,100.00
2022-12-16T21:27:18.909Z,100.00
2022-12-16T21:30:04.436Z,100.00
2022-12-16T21:32:50.306Z,100.00
2022-12-16T21:35:36.359Z,100.00
2022-12-16T21:38:25.939Z,100.00
2022-12-16T21:41:12.097Z,100.00
2022-12-16T21:43:57.794Z,100.00
2022-12-16T21:46:43.411Z,100.00
2022-12-16T21:49:29.064Z,100.00
2022-12-16T21:52:14.628Z,100.00
2022-12-16T21:55:00.346Z,100.00
2022-12-16T21:57:45.924Z,100.00
2022-12-16T22:00:31.607Z,100.00
2022-12-16T22:03:19.697Z,100.00
2022-12-16T22:06:07.632Z,100.00
2022-12-16T22:08:53.204Z,100.00
2022-12-16T22:11:41.917Z,100.00
2022-12-16T22:14:27.679Z,100.00
2022-12-16T22:17:13.328Z,100.00
2022-12-16T22:19:59.152Z,100.00
2022-12-16T22:22:44.753Z,100.00
2022-12-16T22:25:30.442Z,100.00
2022-12-16T22:28:16.219Z,100.00
2022-12-16T22:31:01.558Z,100.00
2022-12-16T22:33:47.014Z,100.00
2022-12-16T22:36:32.545Z,100.00
2022-12-16T22:39:18.325Z,100.00
2022-12-16T22:42:03.986Z,100.00
2022-12-16T22:44:49.585Z,100.00
2022-12-16T22:47:35.378Z,100.00
2022-12-16T22:50:21.056Z,100.00
2022-12-16T22:53:06.716Z,100.00
2022-12-16T22:55:53.162Z,100.00
2022-12-16T22:58:44.161Z,100.00
2022-12-16T23:01:29.880Z,100.00
2022-12-16T23:04:15.661Z,100.00
2022-12-16T23:07:01.818Z,100.00
2022-12-16T23:09:47.441Z,100.00
2022-12-16T23:12:32.994Z,100.00
2022-12-16T23:15:18.401Z,100.00
2022-12-16T23:18:04.180Z,100.00
2022-12-16T23:20:49.930Z,100.00
2022-12-16T23:23:35.143Z,100.00
2022-12-16T23:26:20.788Z,100.00
2022-12-16T23:29:10.402Z,100.00
2022-12-16T23:31:56.582Z,100.00
2022-12-16T23:34:45.703Z,100.00
2022-12-16T23:37:32.275Z,100.00
2022-12-16T23:40:17.896Z,100.00
2022-12-16T23:43:17.133Z,100.00
2022-12-16T23:46:02.748Z,100.00
2022-12-16T23:48:48.220Z,100.00
2022-12-16T23:51:45.065Z,100.00
2022-12-16T23:54:30.458Z,100.00
2022-12-16T23:57:16.080Z,100.00
